Time;durP1;ratioP1;P1;durP2;ratioP2;P2;SDS_P1;SDS_P2;PMS_P1;PMS_P2;Temp;Humidity;BMP_temperature;BMP_pressure;BME280_temperature;BME280_humidity;BME280_pressure;Samples;Min_cycle;Max_cycle;Signal;HPM_P1;HPM_P2
2023/05/18 00:01:04;;;;;;;;;;;7.70;99.90;;;;;;5086643;28;19948;-67
2023/05/18 00:03:32;;;;;;;;;;;7.60;99.90;;;;;;5086437;28;20098;-67
2023/05/18 00:06:03;;;;;;;;;;;7.60;99.90;;;;;;5085948;28;19991;-68
2023/05/18 00:08:29;;;;;;;;;;;7.50;99.90;;;;;;5086332;28;19920;-67
2023/05/18 00:10:56;;;;;;;;;;;7.50;99.90;;;;;;5086139;28;20260;-68
2023/05/18 00:13:23;;;;;;;;;;;7.40;99.90;;;;;;5086387;28;19921;-68
2023/05/18 00:15:49;;;;;;;;;;;7.40;99.90;;;;;;5085958;28;19920;-68
2023/05/18 00:18:17;;;;;;;;;;;7.30;99.90;;;;;;5086051;28;20215;-68
2023/05/18 00:20:44;;;;;;;;;;;7.30;99.90;;;;;;5086381;28;19920;-67
2023/05/18 00:23:15;;;;;;;;;;;7.30;99.90;;;;;;5086138;28;19942;-67
2023/05/18 00:25:41;;;;;;;;;;;7.20;99.90;;;;;;5085460;28;19920;-67
2023/05/18 00:28:10;;;;;;;;;;;7.20;99.90;;;;;;5085562;28;20232;-68
2023/05/18 00:30:37;;;;;;;;;;;7.20;99.90;;;;;;5086093;28;20097;-67
2023/05/18 00:33:03;;;;;;;;;;;7.20;99.90;;;;;;5085789;28;19956;-69
2023/05/18 00:35:31;;;;;;;;;;;7.10;99.90;;;;;;5096618;28;19942;-70
2023/05/18 00:37:58;;;;;;;;;;;7.10;99.90;;;;;;5105494;28;20197;-69
2023/05/18 00:40:25;;;;;;;;;;;7.10;99.90;;;;;;5106175;28;19983;-69
2023/05/18 00:42:52;;;;;;;;;;;7.00;99.90;;;;;;5105852;28;19929;-67
2023/05/18 00:45:19;;;;;;;;;;;7.00;99.90;;;;;;5105575;28;19983;-67
2023/05/18 00:47:46;;;;;;;;;;;7.00;99.90;;;;;;5105983;28;19962;-67
2023/05/18 00:50:12;;;;;;;;;;;6.90;99.90;;;;;;5105720;28;20204;-69
2023/05/18 00:52:40;;;;;;;;;;;6.90;99.90;;;;;;5105877;28;19926;-68
2023/05/18 00:55:08;;;;;;;;;;;6.90;99.90;;;;;;5105758;28;19928;-68
2023/05/18 00:57:35;;;;;;;;;;;6.80;99.90;;;;;;5105068;28;19987;-69
2023/05/18 01:00:03;;;;;;;;;;;6.80;99.90;;;;;;5094299;28;19920;-66
2023/05/18 01:02:30;;;;;;;;;;;6.70;99.90;;;;;;5083940;28;19920;-69
2023/05/18 01:04:58;;;;;;;;;;;6.70;99.90;;;;;;5084691;28;19995;-67
2023/05/18 01:07:25;;;;;;;;;;;6.60;99.90;;;;;;5084013;28;19927;-70
2023/05/18 01:09:53;;;;;;;;;;;6.60;99.90;;;;;;5083973;28;19926;-68
2023/05/18 01:12:24;;;;;;;;;;;6.60;99.90;;;;;;5084929;28;19952;-69
2023/05/18 01:14:52;;;;;;;;;;;6.60;99.90;;;;;;5085209;28;19920;-67
2023/05/18 01:17:23;;;;;;;;;;;6.50;99.90;;;;;;5085035;28;19955;-68
2023/05/18 01:20:00;;;;;;;;;;;6.50;99.90;;;;;;5082985;28;19921;-67
2023/05/18 01:22:33;;;;;;;;;;;6.50;99.90;;;;;;5085000;28;19925;-68
2023/05/18 01:25:05;;;;;;;;;;;6.40;99.90;;;;;;5084731;28;19924;-67
2023/05/18 01:27:36;;;;;;;;;;;6.40;99.90;;;;;;5084581;28;19959;-69
2023/05/18 01:30:04;;;;;;;;;;;6.30;99.90;;;;;;5085079;28;19981;-69
2023/05/18 01:32:30;;;;;;;;;;;6.30;99.90;;;;;;5084807;28;19927;-69
2023/05/18 01:34:57;;;;;;;;;;;6.30;99.90;;;;;;5084707;28;19983;-68
2023/05/18 01:37:24;;;;;;;;;;;6.20;99.90;;;;;;5084048;28;19955;-67
2023/05/18 01:39:50;;;;;;;;;;;6.10;99.90;;;;;;5084790;28;19956;-67
2023/05/18 01:42:20;;;;;;;;;;;6.10;99.90;;;;;;5084638;28;19921;-68
2023/05/18 01:44:51;;;;;;;;;;;6.00;99.90;;;;;;5087255;28;19983;-67
2023/05/18 01:47:18;;;;;;;;;;;6.00;99.90;;;;;;5104303;28;19926;-69
2023/05/18 01:49:46;;;;;;;;;;;6.00;99.90;;;;;;5104871;28;19983;-67
2023/05/18 01:52:15;;;;;;;;;;;5.90;99.90;;;;;;5104790;28;19926;-69
2023/05/18 01:54:43;;;;;;;;;;;5.80;99.90;;;;;;5104508;28;19920;-68
2023/05/18 01:57:10;;;;;;;;;;;5.80;99.90;;;;;;5103897;28;19979;-68
2023/05/18 01:59:37;;;;;;;;;;;5.80;99.90;;;;;;5104662;28;19920;-68
2023/05/18 02:02:05;;;;;;;;;;;5.80;99.90;;;;;;5104681;28;19927;-69
2023/05/18 02:04:33;;;;;;;;;;;5.80;99.90;;;;;;5089502;28;19927;-69
2023/05/18 02:07:00;;;;;;;;;;;5.70;99.90;;;;;;5083409;28;19924;-67
2023/05/18 02:09:27;;;;;;;;;;;5.70;99.90;;;;;;5084079;28;19983;-68
2023/05/18 02:11:53;;;;;;;;;;;5.70;99.90;;;;;;5084194;28;19952;-70
2023/05/18 02:14:20;;;;;;;;;;;5.70;99.90;;;;;;5094560;28;19952;-69
2023/05/18 02:16:51;;;;;;;;;;;5.60;99.90;;;;;;5103787;28;19980;-68
2023/05/18 02:19:19;;;;;;;;;;;5.60;99.90;;;;;;5104296;28;20026;-67
2023/05/18 02:21:46;;;;;;;;;;;5.60;99.90;;;;;;5092377;28;19921;-68
2023/05/18 02:24:12;;;;;;;;;;;5.60;99.90;;;;;;5103963;28;19955;-67
2023/05/18 02:26:40;;;;;;;;;;;5.50;99.90;;;;;;5103695;28;19958;-67
2023/05/18 02:29:10;;;;;;;;;;;5.50;99.90;;;;;;5104207;28;19920;-68
2023/05/18 02:31:36;;;;;;;;;;;5.40;99.90;;;;;;5104034;28;19919;-69
2023/05/18 02:34:03;;;;;;;;;;;5.40;99.90;;;;;;5104092;28;19951;-68
2023/05/18 02:36:35;;;;;;;;;;;5.40;99.90;;;;;;5103742;28;19924;-68
2023/05/18 02:39:02;;;;;;;;;;;5.40;99.90;;;;;;5104204;28;19920;-67
2023/05/18 02:41:29;;;;;;;;;;;5.30;99.90;;;;;;5103934;28;19942;-69
2023/05/18 02:43:56;;;;;;;;;;;5.30;99.90;;;;;;5101978;28;20176;-68
2023/05/18 02:46:22;;;;;;;;;;;5.20;99.90;;;;;;5103089;28;19983;-67
2023/05/18 02:48:49;;;;;;;;;;;5.20;99.90;;;;;;5103855;28;19967;-68
2023/05/18 02:51:15;;;;;;;;;;;5.20;99.90;;;;;;5103874;28;20157;-70
2023/05/18 02:53:43;;;;;;;;;;;5.20;99.90;;;;;;5103474;28;19926;-67
2023/05/18 02:56:11;;;;;;;;;;;5.10;99.90;;;;;;5103083;28;19920;-68
2023/05/18 02:58:37;;;;;;;;;;;5.10;99.90;;;;;;5101690;28;19958;-69
2023/05/18 03:01:06;;;;;;;;;;;5.10;99.90;;;;;;5103795;28;19983;-68
2023/05/18 03:03:33;;;;;;;;;;;5.10;99.90;;;;;;5103835;28;19952;-68
2023/05/18 03:06:01;;;;;;;;;;;5.10;99.90;;;;;;5102709;28;19920;-67
2023/05/18 03:08:27;;;;;;;;;;;5.10;99.90;;;;;;5103510;28;19955;-68
2023/05/18 03:10:56;;;;;;;;;;;5.00;99.90;;;;;;5103415;28;19926;-69
2023/05/18 03:13:22;;;;;;;;;;;5.00;99.90;;;;;;5103750;28;19983;-68
2023/05/18 03:15:49;;;;;;;;;;;5.00;99.90;;;;;;5103249;28;19985;-69
2023/05/18 03:18:16;;;;;;;;;;;4.90;99.90;;;;;;5106865;28;19920;-69
2023/05/18 03:20:43;;;;;;;;;;;4.90;99.90;;;;;;5107926;28;20006;-68
2023/05/18 03:23:10;;;;;;;;;;;4.80;99.90;;;;;;5107378;28;20189;-68
2023/05/18 03:25:37;;;;;;;;;;;4.80;99.90;;;;;;5107370;28;19991;-67
2023/05/18 03:28:05;;;;;;;;;;;4.80;99.90;;;;;;5107128;28;19919;-68
2023/05/18 03:30:32;;;;;;;;;;;4.80;99.90;;;;;;5107555;28;19926;-68
2023/05/18 03:32:59;;;;;;;;;;;4.70;99.90;;;;;;5107387;28;19924;-67
2023/05/18 03:35:25;;;;;;;;;;;4.80;99.90;;;;;;5107069;28;19955;-68
2023/05/18 03:37:52;;;;;;;;;;;4.70;99.90;;;;;;5107140;28;19987;-68
2023/05/18 03:40:19;;;;;;;;;;;4.70;99.90;;;;;;5107375;28;19987;-67
2023/05/18 03:42:46;;;;;;;;;;;4.60;99.90;;;;;;5107502;28;19981;-68
2023/05/18 03:45:14;;;;;;;;;;;4.60;99.90;;;;;;5106749;28;19994;-67
2023/05/18 03:47:40;;;;;;;;;;;4.50;99.90;;;;;;5106870;28;19952;-69
2023/05/18 03:50:07;;;;;;;;;;;4.50;99.90;;;;;;5106915;28;20236;-69
2023/05/18 03:52:34;;;;;;;;;;;4.50;99.90;;;;;;5106858;28;19986;-68
2023/05/18 03:55:01;;;;;;;;;;;4.50;99.90;;;;;;5106598;28;19920;-69
2023/05/18 03:57:28;;;;;;;;;;;4.40;99.90;;;;;;5106291;28;19924;-68
2023/05/18 03:59:54;;;;;;;;;;;4.50;99.90;;;;;;5106362;28;20257;-67
2023/05/18 04:02:22;;;;;;;;;;;4.40;99.90;;;;;;5106825;28;19951;-67
2023/05/18 04:04:52;;;;;;;;;;;4.40;99.90;;;;;;5106500;28;20204;-68
2023/05/18 04:07:20;;;;;;;;;;;4.40;99.90;;;;;;5099748;28;19932;-67
2023/05/18 04:09:47;;;;;;;;;;;4.50;99.90;;;;;;5086487;28;19921;-68
2023/05/18 04:12:14;;;;;;;;;;;4.50;99.90;;;;;;5086519;28;19920;-68
2023/05/18 04:14:48;;;;;;;;;;;4.50;99.90;;;;;;5086174;28;19958;-68
2023/05/18 04:17:16;;;;;;;;;;;4.50;99.90;;;;;;5090380;28;19926;-68
2023/05/18 04:19:44;;;;;;;;;;;4.50;99.90;;;;;;5106637;28;19920;-69
2023/05/18 04:22:11;;;;;;;;;;;4.60;99.90;;;;;;5106473;28;19927;-67
2023/05/18 04:24:40;;;;;;;;;;;4.60;99.90;;;;;;5106443;28;19927;-70
2023/05/18 04:27:07;;;;;;;;;;;4.70;99.90;;;;;;5105549;28;19927;-69
2023/05/18 04:29:38;;;;;;;;;;;4.70;99.90;;;;;;5106416;28;19920;-68
2023/05/18 04:32:06;;;;;;;;;;;4.80;99.90;;;;;;5106535;28;19973;-67
2023/05/18 04:34:34;;;;;;;;;;;4.90;99.90;;;;;;5106363;28;19920;-67
2023/05/18 04:37:04;;;;;;;;;;;5.00;99.90;;;;;;5103533;28;20212;-67
2023/05/18 04:39:31;;;;;;;;;;;5.10;99.90;;;;;;5085755;28;19983;-67
2023/05/18 04:41:58;;;;;;;;;;;5.20;99.90;;;;;;5085668;28;20235;-67
2023/05/18 04:44:26;;;;;;;;;;;5.20;99.90;;;;;;5085526;28;19984;-67
2023/05/18 04:46:52;;;;;;;;;;;5.30;99.90;;;;;;5084735;28;19959;-69
2023/05/18 04:49:20;;;;;;;;;;;5.40;99.90;;;;;;5085772;28;19955;-67
2023/05/18 04:51:48;;;;;;;;;;;5.50;99.90;;;;;;5085761;28;19921;-69
2023/05/18 04:54:19;;;;;;;;;;;5.60;99.90;;;;;;5085328;28;20209;-67
2023/05/18 04:56:46;;;;;;;;;;;5.70;99.90;;;;;;5084973;28;19924;-67
2023/05/18 04:59:12;;;;;;;;;;;5.80;99.90;;;;;;5085515;28;19962;-68
2023/05/18 05:01:39;;;;;;;;;;;5.90;99.90;;;;;;5085551;28;19921;-67
2023/05/18 05:04:06;;;;;;;;;;;6.00;99.90;;;;;;5085483;28;19960;-67
2023/05/18 05:06:32;;;;;;;;;;;6.10;99.90;;;;;;5084255;28;19927;-67
2023/05/18 05:08:59;;;;;;;;;;;6.20;99.90;;;;;;5092565;28;19994;-67
2023/05/18 05:11:27;;;;;;;;;;;6.30;99.90;;;;;;5105618;28;19983;-67
2023/05/18 05:13:53;;;;;;;;;;;6.40;99.90;;;;;;5105550;28;19955;-68
2023/05/18 05:16:20;;;;;;;;;;;6.50;99.90;;;;;;5104558;28;20251;-67
2023/05/18 05:18:47;;;;;;;;;;;6.60;99.90;;;;;;5101013;28;19948;-66
2023/05/18 05:21:13;;;;;;;;;;;6.70;99.90;;;;;;5085123;28;19984;-69
2023/05/18 05:23:40;;;;;;;;;;;6.70;99.90;;;;;;5084781;28;19999;-68
2023/05/18 05:26:06;;;;;;;;;;;6.80;99.90;;;;;;5084492;28;19974;-68
2023/05/18 05:28:34;;;;;;;;;;;6.90;99.90;;;;;;5084630;28;19984;-68
2023/05/18 05:31:01;;;;;;;;;;;6.90;99.90;;;;;;5085019;28;19943;-66
2023/05/18 05:33:28;;;;;;;;;;;7.00;99.90;;;;;;5083435;28;20273;-67
2023/05/18 05:35:54;;;;;;;;;;;7.10;99.90;;;;;;5084257;28;20019;-67
2023/05/18 05:38:21;;;;;;;;;;;7.20;99.90;;;;;;5084302;28;19999;-67
2023/05/18 05:40:48;;;;;;;;;;;7.20;99.90;;;;;;5084068;28;19952;-67
2023/05/18 05:43:14;;;;;;;;;;;7.30;99.90;;;;;;5084814;28;19983;-67
2023/05/18 05:45:42;;;;;;;;;;;7.40;99.90;;;;;;5084274;28;19958;-68
2023/05/18 05:48:09;;;;;;;;;;;7.50;99.90;;;;;;5084307;28;19920;-67
2023/05/18 05:50:36;;;;;;;;;;;7.60;99.90;;;;;;5084241;28;19927;-68
2023/05/18 05:53:02;;;;;;;;;;;7.60;99.90;;;;;;5089785;28;19983;-68
2023/05/18 05:55:29;;;;;;;;;;;7.70;99.90;;;;;;5104623;28;19987;-69
2023/05/18 05:57:56;;;;;;;;;;;7.70;99.90;;;;;;5095948;28;19921;-68
2023/05/18 06:00:23;;;;;;;;;;;7.70;99.90;;;;;;5096402;28;19954;-69
2023/05/18 06:02:51;;;;;;;;;;;7.80;99.90;;;;;;5104559;28;19920;-67
2023/05/18 06:05:17;;;;;;;;;;;7.90;99.90;;;;;;5104184;28;19920;-68
2023/05/18 06:07:44;;;;;;;;;;;7.90;99.90;;;;;;5101548;28;19983;-68
2023/05/18 06:10:11;;;;;;;;;;;8.00;99.90;;;;;;5104352;28;20017;-67
2023/05/18 06:12:37;;;;;;;;;;;8.10;99.90;;;;;;5104344;28;19920;-67
2023/05/18 06:15:04;;;;;;;;;;;8.10;99.90;;;;;;5104073;28;20259;-67
2023/05/18 06:17:31;;;;;;;;;;;8.30;99.90;;;;;;5103835;28;20246;-69
2023/05/18 06:19:59;;;;;;;;;;;8.30;99.90;;;;;;5104316;28;19987;-67
2023/05/18 06:22:26;;;;;;;;;;;8.40;99.90;;;;;;5103999;28;19928;-68
2023/05/18 06:24:52;;;;;;;;;;;8.40;99.90;;;;;;5104175;28;19986;-68
2023/05/18 06:27:19;;;;;;;;;;;8.50;99.90;;;;;;5103991;28;20168;-68
2023/05/18 06:29:45;;;;;;;;;;;8.50;99.90;;;;;;5104215;28;19987;-67
2023/05/18 06:32:12;;;;;;;;;;;8.50;99.90;;;;;;5102755;28;19963;-68
2023/05/18 06:34:39;;;;;;;;;;;8.60;99.90;;;;;;5103996;28;20089;-68
2023/05/18 06:37:07;;;;;;;;;;;8.60;99.90;;;;;;5103235;28;19920;-67
2023/05/18 06:39:33;;;;;;;;;;;8.70;99.90;;;;;;5103958;28;20003;-69
2023/05/18 06:42:00;;;;;;;;;;;8.80;99.90;;;;;;5103665;28;19987;-67
2023/05/18 06:44:27;;;;;;;;;;;8.90;99.90;;;;;;5103910;28;19926;-69
2023/05/18 06:46:53;;;;;;;;;;;8.90;99.90;;;;;;5102986;28;19994;-68
2023/05/18 06:49:20;;;;;;;;;;;9.00;99.90;;;;;;5103550;28;20223;-69
2023/05/18 06:51:47;;;;;;;;;;;9.00;99.90;;;;;;5103723;28;19920;-67
2023/05/18 06:54:15;;;;;;;;;;;9.00;99.90;;;;;;5103735;28;19920;-69
2023/05/18 06:56:41;;;;;;;;;;;9.10;99.90;;;;;;5102064;28;20128;-68
2023/05/18 06:59:08;;;;;;;;;;;9.10;99.90;;;;;;5084359;28;19920;-69
2023/05/18 07:01:35;;;;;;;;;;;9.20;99.90;;;;;;5103787;28;20070;-68
2023/05/18 07:04:02;;;;;;;;;;;9.20;99.90;;;;;;5103255;28;19920;-68
2023/05/18 07:06:28;;;;;;;;;;;9.20;99.90;;;;;;5101659;28;19920;-67
2023/05/18 07:08:55;;;;;;;;;;;9.30;99.90;;;;;;5102665;28;19919;-69
2023/05/18 07:11:23;;;;;;;;;;;9.30;99.90;;;;;;5103356;28;19920;-69
2023/05/18 07:13:50;;;;;;;;;;;9.40;99.90;;;;;;5103362;28;19991;-69
2023/05/18 07:16:16;;;;;;;;;;;9.50;99.90;;;;;;5102846;28;19952;-70
2023/05/18 07:18:43;;;;;;;;;;;9.60;99.90;;;;;;5103388;28;20006;-68
2023/05/18 07:21:10;;;;;;;;;;;9.70;99.90;;;;;;5103625;28;20165;-69
2023/05/18 07:23:36;;;;;;;;;;;9.80;99.90;;;;;;5103540;28;19920;-68
2023/05/18 07:26:04;;;;;;;;;;;9.90;99.90;;;;;;5102915;28;19959;-66
2023/05/18 07:28:32;;;;;;;;;;;10.00;99.90;;;;;;5103135;28;19926;-66
2023/05/18 07:30:58;;;;;;;;;;;10.10;99.90;;;;;;5103476;28;19959;-67
2023/05/18 07:33:25;;;;;;;;;;;10.20;99.90;;;;;;5103347;28;19959;-66
2023/05/18 07:35:52;;;;;;;;;;;10.20;99.90;;;;;;5102958;28;20004;-67
2023/05/18 07:38:18;;;;;;;;;;;10.30;99.90;;;;;;5093965;28;19948;-66
2023/05/18 07:40:45;;;;;;;;;;;10.40;99.90;;;;;;5083194;28;19987;-67
2023/05/18 07:43:11;;;;;;;;;;;10.50;99.90;;;;;;5083174;28;19983;-67
2023/05/18 07:45:39;;;;;;;;;;;10.50;99.90;;;;;;5082508;28;19992;-67
2023/05/18 07:48:06;;;;;;;;;;;10.50;99.90;;;;;;5094193;28;19928;-66
2023/05/18 07:50:33;;;;;;;;;;;10.60;99.90;;;;;;5103390;28;19978;-66
2023/05/18 07:53:00;;;;;;;;;;;10.60;99.90;;;;;;5103359;28;20152;-66
2023/05/18 07:55:26;;;;;;;;;;;10.70;99.90;;;;;;5103096;28;19955;-67
2023/05/18 07:57:53;;;;;;;;;;;10.70;99.90;;;;;;5102788;28;20470;-66
2023/05/18 08:00:20;;;;;;;;;;;10.70;99.90;;;;;;5103090;28;19926;-66
2023/05/18 08:02:48;;;;;;;;;;;10.80;99.90;;;;;;5104024;28;20133;-66
2023/05/18 08:05:15;;;;;;;;;;;10.90;99.90;;;;;;5105630;28;19958;-66
2023/05/18 08:07:42;;;;;;;;;;;11.00;99.90;;;;;;5103385;28;19920;-67
2023/05/18 08:10:10;;;;;;;;;;;11.10;99.90;;;;;;5106528;28;19962;-66
2023/05/18 08:12:36;;;;;;;;;;;11.30;99.90;;;;;;5106584;28;19934;-66
2023/05/18 08:15:03;;;;;;;;;;;11.40;99.90;;;;;;5106346;28;19952;-68
2023/05/18 08:17:30;;;;;;;;;;;11.40;99.90;;;;;;5104361;28;19930;-67
2023/05/18 08:19:58;;;;;;;;;;;11.50;99.90;;;;;;5106590;28;20090;-67
2023/05/18 08:22:25;;;;;;;;;;;11.50;99.90;;;;;;5105988;28;20259;-67
2023/05/18 08:24:51;;;;;;;;;;;11.60;99.90;;;;;;5106071;28;19983;-66
2023/05/18 08:27:18;;;;;;;;;;;11.70;99.90;;;;;;5104716;28;19920;-66
2023/05/18 08:29:45;;;;;;;;;;;11.70;99.90;;;;;;5106291;28;19962;-67
2023/05/18 08:32:12;;;;;;;;;;;11.80;99.90;;;;;;5106242;28;19920;-66
2023/05/18 08:34:38;;;;;;;;;;;11.90;99.90;;;;;;5106102;28;19995;-66
2023/05/18 08:37:06;;;;;;;;;;;12.00;99.90;;;;;;5105390;28;19920;-67
2023/05/18 08:39:33;;;;;;;;;;;12.10;99.90;;;;;;5105885;28;19985;-67
2023/05/18 08:42:02;;;;;;;;;;;12.10;99.90;;;;;;5106190;28;19926;-67
2023/05/18 08:44:30;;;;;;;;;;;12.20;99.90;;;;;;5105623;28;19920;-66
2023/05/18 08:46:57;;;;;;;;;;;12.30;99.90;;;;;;5105169;28;19920;-66
2023/05/18 08:49:24;;;;;;;;;;;12.30;99.90;;;;;;5085779;28;19920;-66
2023/05/18 08:51:54;;;;;;;;;;;12.30;99.90;;;;;;5098824;28;19979;-65
2023/05/18 08:54:23;;;;;;;;;;;12.40;99.90;;;;;;5105648;28;19983;-66
2023/05/18 08:56:50;;;;;;;;;;;12.50;99.90;;;;;;5105022;28;19920;-66
2023/05/18 08:59:18;;;;;;;;;;;12.50;99.90;;;;;;5105532;28;19983;-66
2023/05/18 09:01:46;;;;;;;;;;;12.50;99.90;;;;;;5103956;28;19927;-66
2023/05/18 09:04:13;;;;;;;;;;;12.60;99.90;;;;;;5104780;28;20089;-66
2023/05/18 09:06:39;;;;;;;;;;;12.70;99.90;;;;;;5104158;28;20177;-66
2023/05/18 09:09:06;;;;;;;;;;;12.70;99.90;;;;;;5104870;28;19920;-66
2023/05/18 09:11:35;;;;;;;;;;;12.70;99.90;;;;;;5105481;28;19920;-66
2023/05/18 09:14:02;;;;;;;;;;;12.70;99.90;;;;;;5103853;28;19987;-66
2023/05/18 09:16:29;;;;;;;;;;;12.70;99.90;;;;;;5104409;28;19980;-66
2023/05/18 09:18:55;;;;;;;;;;;12.80;99.90;;;;;;5105019;28;20232;-66
2023/05/18 09:21:22;;;;;;;;;;;12.80;99.90;;;;;;5105194;28;19974;-65
2023/05/18 09:23:50;;;;;;;;;;;12.90;99.90;;;;;;5104664;28;19920;-66
2023/05/18 09:26:16;;;;;;;;;;;13.00;99.90;;;;;;5104382;28;19983;-66
2023/05/18 09:28:46;;;;;;;;;;;13.20;99.90;;;;;;5104753;28;20007;-67
2023/05/18 09:31:16;;;;;;;;;;;13.30;99.90;;;;;;5104859;28;19920;-66
2023/05/18 09:33:44;;;;;;;;;;;13.40;99.90;;;;;;5104717;28;19920;-66
2023/05/18 09:36:10;;;;;;;;;;;13.50;99.90;;;;;;5104239;28;19955;-66
2023/05/18 09:38:38;;;;;;;;;;;13.50;99.90;;;;;;5104951;28;19943;-65
2023/05/18 09:41:09;;;;;;;;;;;13.60;99.90;;;;;;5104789;28;19951;-66
2023/05/18 09:43:35;;;;;;;;;;;13.80;99.90;;;;;;5104845;28;19983;-67
2023/05/18 09:46:07;;;;;;;;;;;13.80;99.90;;;;;;5104187;28;19991;-66
2023/05/18 09:48:35;;;;;;;;;;;14.00;99.90;;;;;;5104131;28;19970;-67
2023/05/18 09:51:02;;;;;;;;;;;14.10;99.90;;;;;;5104642;28;20230;-67
2023/05/18 09:53:28;;;;;;;;;;;14.20;99.90;;;;;;5104671;28;19955;-66
2023/05/18 09:55:55;;;;;;;;;;;14.30;99.90;;;;;;5103961;28;20127;-66
2023/05/18 09:58:21;;;;;;;;;;;14.40;99.90;;;;;;5096760;28;20251;-66
2023/05/18 10:00:52;;;;;;;;;;;14.50;99.90;;;;;;5094863;28;19956;-67
2023/05/18 10:03:22;;;;;;;;;;;14.60;99.90;;;;;;5083964;28;20255;-66
2023/05/18 10:05:49;;;;;;;;;;;14.60;99.90;;;;;;5083552;28;19984;-67
2023/05/18 10:08:15;;;;;;;;;;;14.60;99.90;;;;;;5092356;28;20108;-66
2023/05/18 10:10:44;;;;;;;;;;;14.60;99.90;;;;;;5104423;28;19920;-66
2023/05/18 10:13:13;;;;;;;;;;;14.70;99.90;;;;;;5104083;28;20212;-66
2023/05/18 10:15:46;;;;;;;;;;;14.80;99.90;;;;;;5103760;28;20150;-66
2023/05/18 10:18:13;;;;;;;;;;;14.90;99.90;;;;;;5103842;28;20212;-68
2023/05/18 10:20:42;;;;;;;;;;;15.00;99.90;;;;;;5104347;28;19986;-66
2023/05/18 10:23:09;;;;;;;;;;;15.10;99.90;;;;;;5104196;28;20180;-67
2023/05/18 10:25:37;;;;;;;;;;;15.00;99.90;;;;;;5087769;28;20223;-66
2023/05/18 10:28:06;;;;;;;;;;;15.00;99.90;;;;;;5093823;28;20257;-66
2023/05/18 10:30:34;;;;;;;;;;;15.00;99.90;;;;;;5096224;28;19991;-66
2023/05/18 10:33:02;;;;;;;;;;;15.10;99.90;;;;;;5104087;28;19920;-67
2023/05/18 10:35:29;;;;;;;;;;;15.30;99.90;;;;;;5100230;28;19987;-66
2023/05/18 10:37:57;;;;;;;;;;;15.50;99.90;;;;;;5103269;28;19920;-68
2023/05/18 10:40:24;;;;;;;;;;;15.70;99.90;;;;;;5103941;28;19927;-67
2023/05/18 10:42:51;;;;;;;;;;;15.80;99.90;;;;;;5103289;28;19920;-66
2023/05/18 10:45:19;;;;;;;;;;;15.90;99.90;;;;;;5102708;28;20224;-67
2023/05/18 10:47:52;;;;;;;;;;;16.00;99.90;;;;;;5102962;28;19959;-66
2023/05/18 10:50:19;;;;;;;;;;;16.00;99.90;;;;;;5103270;28;19926;-67
2023/05/18 10:52:46;;;;;;;;;;;16.10;99.90;;;;;;5103236;28;20184;-66
2023/05/18 10:55:14;;;;;;;;;;;16.10;99.90;;;;;;5104118;28;19920;-68
2023/05/18 10:57:43;;;;;;;;;;;16.10;99.90;;;;;;5083663;28;19920;-67
2023/05/18 11:00:11;;;;;;;;;;;16.20;99.90;;;;;;5101500;28;19926;-67
2023/05/18 11:02:41;;;;;;;;;;;16.30;99.90;;;;;;5101331;28;19928;-68
2023/05/18 11:05:08;;;;;;;;;;;16.20;99.90;;;;;;5102722;28;19920;-66
2023/05/18 11:07:35;;;;;;;;;;;16.00;99.90;;;;;;5102074;28;20380;-67
2023/05/18 11:10:02;;;;;;;;;;;16.00;99.90;;;;;;5102824;28;19988;-67
2023/05/18 11:12:31;;;;;;;;;;;16.00;99.90;;;;;;5101763;28;19935;-67
2023/05/18 11:14:58;;;;;;;;;;;16.20;99.90;;;;;;5102838;28;19920;-67
2023/05/18 11:17:25;;;;;;;;;;;16.30;99.90;;;;;;5100471;28;20167;-67
2023/05/18 11:20:11;;;;;;;;;;;16.50;99.90;;;;;;5103106;28;19955;-67
2023/05/18 11:22:48;;;;;;;;;;;16.70;99.90;;;;;;5086398;28;19924;-68
2023/05/18 11:25:45;;;;;;;;;;;17.00;99.90;;;;;;5100186;28;19928;-68
2023/05/18 11:28:13;;;;;;;;;;;17.20;99.90;;;;;;5029363;28;19963;-68
2023/05/18 11:30:48;;;;;;;;;;;17.30;99.90;;;;;;5088556;28;19950;-68
2023/05/18 11:33:16;;;;;;;;;;;17.30;99.90;;;;;;5102766;28;19965;-68
2023/05/18 11:35:55;;;;;;;;;;;17.30;99.90;;;;;;5102135;28;19947;-67
2023/05/18 11:38:22;;;;;;;;;;;17.40;99.90;;;;;;5084222;28;19983;-67
2023/05/18 11:40:49;;;;;;;;;;;17.20;99.90;;;;;;5085210;28;19920;-68
2023/05/18 11:43:21;;;;;;;;;;;17.20;99.90;;;;;;5093757;28;19951;-67
2023/05/18 11:45:54;;;;;;;;;;;17.10;99.90;;;;;;5106430;28;19924;-69
2023/05/18 11:48:21;;;;;;;;;;;17.20;99.90;;;;;;5106396;28;20093;-68
2023/05/18 11:50:48;;;;;;;;;;;17.20;99.90;;;;;;5106895;28;19924;-69
2023/05/18 11:53:16;;;;;;;;;;;17.20;99.90;;;;;;5090040;28;19927;-69
2023/05/18 11:55:42;;;;;;;;;;;17.30;99.90;;;;;;5099113;28;19965;-69
2023/05/18 11:58:09;;;;;;;;;;;17.30;99.90;;;;;;5091934;28;19979;-68
2023/05/18 12:00:38;;;;;;;;;;;17.40;99.90;;;;;;5106745;28;20231;-68
2023/05/18 12:03:05;;;;;;;;;;;17.40;99.90;;;;;;5106599;28;19920;-69
2023/05/18 12:05:33;;;;;;;;;;;17.30;99.90;;;;;;5106166;28;19919;-68
2023/05/18 12:07:59;;;;;;;;;;;17.20;99.90;;;;;;5105954;28;20015;-68
2023/05/18 12:10:26;;;;;;;;;;;17.20;99.90;;;;;;5106543;28;19987;-69
2023/05/18 12:12:53;;;;;;;;;;;17.00;99.90;;;;;;5086489;28;19921;-69
2023/05/18 12:15:21;;;;;;;;;;;17.00;99.90;;;;;;5085733;28;19920;-67
2023/05/18 12:17:50;;;;;;;;;;;17.20;99.90;;;;;;5084934;28;19987;-70
2023/05/18 12:20:17;;;;;;;;;;;17.40;99.90;;;;;;5103832;28;19920;-67
2023/05/18 12:22:45;;;;;;;;;;;17.70;99.90;;;;;;5106327;28;19924;-67
2023/05/18 12:25:11;;;;;;;;;;;17.90;99.90;;;;;;5106039;28;19970;-67
2023/05/18 12:27:39;;;;;;;;;;;18.10;99.90;;;;;;5105148;28;20078;-66
2023/05/18 12:30:07;;;;;;;;;;;18.30;99.90;;;;;;5104810;28;19920;-66
2023/05/18 12:32:33;;;;;;;;;;;18.50;99.90;;;;;;5102527;28;19924;-66
2023/05/18 12:35:02;;;;;;;;;;;18.30;99.90;;;;;;5105878;28;19963;-65
2023/05/18 12:37:29;;;;;;;;;;;18.30;99.90;;;;;;5104440;28;20007;-65
2023/05/18 12:39:55;;;;;;;;;;;18.10;99.90;;;;;;5105627;28;19948;-65
2023/05/18 12:42:22;;;;;;;;;;;18.10;99.90;;;;;;5105753;28;19991;-66
2023/05/18 12:44:50;;;;;;;;;;;18.30;99.90;;;;;;5092921;28;19926;-69
2023/05/18 12:47:18;;;;;;;;;;;18.50;99.90;;;;;;5093331;28;20225;-68
2023/05/18 12:49:50;;;;;;;;;;;18.70;99.90;;;;;;5091420;28;19969;-69
2023/05/18 12:52:20;;;;;;;;;;;18.80;99.90;;;;;;5104592;28;19920;-69
2023/05/18 12:54:49;;;;;;;;;;;18.90;99.90;;;;;;5087682;28;19988;-69
2023/05/18 12:57:19;;;;;;;;;;;19.00;99.90;;;;;;5085084;28;20255;-69
2023/05/18 12:59:48;;;;;;;;;;;19.00;99.90;;;;;;5085508;28;19983;-69
2023/05/18 13:02:24;;;;;;;;;;;19.10;99.90;;;;;;5100014;28;19920;-69
2023/05/18 13:04:59;;;;;;;;;;;19.40;99.80;;;;;;5104945;28;20125;-69
2023/05/18 13:07:27;;;;;;;;;;;19.60;99.80;;;;;;5103286;28;20208;-69
2023/05/18 13:09:55;;;;;;;;;;;19.60;99.50;;;;;;5097929;28;19920;-68
2023/05/18 13:12:35;;;;;;;;;;;19.80;99.30;;;;;;5092497;28;19920;-68
2023/05/18 13:15:07;;;;;;;;;;;20.00;97.80;;;;;;5085130;28;19927;-68
2023/05/18 13:17:34;;;;;;;;;;;19.70;98.20;;;;;;5087208;28;19995;-70
2023/05/18 13:20:01;;;;;;;;;;;19.30;97.60;;;;;;5096519;28;19920;-69
2023/05/18 13:22:29;;;;;;;;;;;18.90;97.80;;;;;;5105178;28;19982;-69
2023/05/18 13:24:55;;;;;;;;;;;19.00;99.00;;;;;;5084603;28;19927;-70
2023/05/18 13:27:22;;;;;;;;;;;19.20;97.90;;;;;;5084050;28;19951;-70
2023/05/18 13:29:49;;;;;;;;;;;19.40;96.70;;;;;;5086863;28;19987;-69
2023/05/18 13:32:15;;;;;;;;;;;19.50;95.60;;;;;;5104687;28;19920;-69
2023/05/18 13:34:42;;;;;;;;;;;19.50;94.00;;;;;;5104779;28;19958;-69
2023/05/18 13:37:08;;;;;;;;;;;19.20;93.90;;;;;;5097673;28;20272;-68
2023/05/18 13:39:36;;;;;;;;;;;19.30;95.80;;;;;;5084682;28;19980;-69
2023/05/18 13:42:03;;;;;;;;;;;19.40;93.60;;;;;;5084735;28;19927;-68
2023/05/18 13:44:30;;;;;;;;;;;19.40;94.40;;;;;;5084616;28;19921;-68
2023/05/18 13:46:56;;;;;;;;;;;19.60;96.30;;;;;;5083448;28;19921;-70
2023/05/18 13:49:23;;;;;;;;;;;20.00;95.20;;;;;;5083658;28;20280;-69
2023/05/18 13:51:49;;;;;;;;;;;20.10;94.30;;;;;;5084113;28;19983;-70
2023/05/18 13:54:16;;;;;;;;;;;19.90;92.90;;;;;;5099849;28;19920;-69
2023/05/18 13:56:44;;;;;;;;;;;19.80;94.30;;;;;;5098597;28;19956;-69
2023/05/18 13:59:11;;;;;;;;;;;19.90;93.70;;;;;;5098142;28;19928;-69
2023/05/18 14:01:41;;;;;;;;;;;20.00;94.40;;;;;;5083642;28;20112;-69
2023/05/18 14:04:07;;;;;;;;;;;19.80;92.90;;;;;;5083896;28;19928;-70
2023/05/18 14:06:34;;;;;;;;;;;19.90;93.00;;;;;;5082852;28;19984;-70
2023/05/18 14:09:00;;;;;;;;;;;20.00;92.40;;;;;;5084078;28;19963;-68
2023/05/18 14:11:27;;;;;;;;;;;20.00;93.00;;;;;;5084069;28;20006;-69
2023/05/18 14:13:55;;;;;;;;;;;20.20;94.00;;;;;;5082901;28;20228;-69
2023/05/18 14:16:22;;;;;;;;;;;20.30;92.70;;;;;;5083378;28;19925;-69
2023/05/18 14:18:48;;;;;;;;;;;20.40;91.50;;;;;;5084088;28;19920;-68
2023/05/18 14:21:15;;;;;;;;;;;20.50;91.70;;;;;;5083702;28;20280;-69
2023/05/18 14:23:42;;;;;;;;;;;20.60;90.00;;;;;;5081313;28;19991;-70
2023/05/18 14:26:08;;;;;;;;;;;20.60;90.90;;;;;;5084619;28;19920;-68